Time;durP1;ratioP1;P1;durP2;ratioP2;P2;SDS_P1;SDS_P2;PMS_P1;PMS_P2;Temp;Humidity;BMP_temperature;BMP_pressure;BME280_temperature;BME280_humidity;BME280_pressure;Samples;Min_cycle;Max_cycle;Signal;HPM_P1;HPM_P2
2023/02/17 00:00:59;;;;;;;;;1.00;1.00;;;;;21.14;42.22;102324.50;5036461;28;46010;-76
2023/02/17 00:03:25;;;;;;;;;1.33;1.33;;;;;21.15;42.03;102333.28;5037005;28;45347;-76
2023/02/17 00:05:51;;;;;;;;;1.00;1.00;;;;;21.14;42.35;102334.22;5036978;28;45503;-76
2023/02/17 00:08:16;;;;;;;;;1.00;1.00;;;;;21.14;42.10;102334.22;5036519;28;45469;-76
2023/02/17 00:10:41;;;;;;;;;2.00;1.00;;;;;21.10;42.20;102322.25;5036793;28;45447;-75
2023/02/17 00:13:07;;;;;;;;;0.00;0.00;;;;;21.07;42.39;102326.03;5036925;28;45385;-76
2023/02/17 00:15:32;;;;;;;;;1.00;1.00;;;;;21.13;42.31;102341.34;5036435;28;45396;-75
2023/02/17 00:17:58;;;;;;;;;1.67;1.00;;;;;21.13;42.33;102343.97;5036503;28;47003;-73
2023/02/17 00:20:23;;;;;;;;;2.00;1.00;;;;;21.13;42.33;102341.34;5018760;28;45606;-75
2023/02/17 00:22:48;;;;;;;;;0.00;0.00;;;;;21.13;42.28;102338.69;5036677;28;45355;-75
2023/02/17 00:25:14;;;;;;;;;1.00;0.33;;;;;21.13;41.93;102343.16;5036603;28;45541;-75
2023/02/17 00:27:39;;;;;;;;;1.00;1.00;;;;;21.14;42.15;102342.19;5036389;28;47270;-75
2023/02/17 00:30:05;;;;;;;;;1.00;1.00;;;;;21.13;41.96;102335.22;5035952;28;45538;-76
2023/02/17 00:32:30;;;;;;;;;0.00;0.00;;;;;21.10;42.20;102332.84;5036525;28;45382;-75
2023/02/17 00:34:57;;;;;;;;;1.00;1.00;;;;;21.13;42.36;102338.69;5036240;28;45390;-75
2023/02/17 00:37:23;;;;;;;;;1.00;1.00;;;;;21.13;42.35;102349.28;5036237;28;46385;-75
2023/02/17 00:39:48;;;;;;;;;1.00;1.00;;;;;21.12;42.16;102337.03;5036314;28;45340;-76
2023/02/17 00:42:14;;;;;;;;;0.00;0.00;;;;;21.14;42.07;102334.22;5036322;28;45321;-75
2023/02/17 00:44:39;;;;;;;;;1.67;1.67;;;;;21.14;41.91;102343.03;5035962;28;45220;-75
2023/02/17 00:47:04;;;;;;;;;1.00;1.00;;;;;21.06;42.09;102334.91;5036041;28;47125;-73
2023/02/17 00:49:30;;;;;;;;;1.00;1.00;;;;;21.02;41.99;102338.81;5036033;28;45386;-75
2023/02/17 00:51:59;;;;;;;;;0.67;0.67;;;;;21.13;42.09;102354.56;5036216;28;45634;-76
2023/02/17 00:54:24;;;;;;;;;1.00;1.00;;;;;21.13;42.18;102338.69;5036225;28;45376;-75
2023/02/17 00:56:50;;;;;;;;;0.33;0.33;;;;;21.12;42.24;102342.31;5035915;28;45232;-75
2023/02/17 00:59:15;;;;;;;;;1.00;1.00;;;;;21.12;42.18;102352.06;5034721;28;45229;-76
2023/02/17 01:01:40;;;;;;;;;1.00;1.00;;;;;21.01;41.74;102334.47;5036036;28;45224;-75
2023/02/17 01:04:06;;;;;;;;;1.00;1.00;;;;;21.10;42.18;102349.56;5036209;28;45454;-75
2023/02/17 01:06:35;;;;;;;;;1.00;1.00;;;;;21.10;41.98;102344.28;5035347;28;46258;-75
2023/02/17 01:09:02;;;;;;;;;1.00;1.00;;;;;21.08;42.07;102338.25;5017799;28;45363;-75
2023/02/17 01:11:30;;;;;;;;;0.00;0.00;;;;;21.10;42.02;102343.44;5035262;28;45469;-75
2023/02/17 01:13:56;;;;;;;;;1.00;1.00;;;;;21.09;42.10;102339.94;5035264;28;45514;-75
2023/02/17 01:16:25;;;;;;;;;1.00;1.00;;;;;21.08;42.15;102327.69;5035725;28;46256;-75
2023/02/17 01:18:51;;;;;;;;;0.33;0.33;;;;;21.09;42.39;102333.81;5035765;28;45394;-75
2023/02/17 01:21:23;;;;;;;;;0.00;0.00;;;;;21.09;42.18;102344.41;5035515;28;45506;-76
2023/02/17 01:23:49;;;;;;;;;2.33;1.00;;;;;21.09;42.15;102344.41;5035675;28;45303;-75
2023/02/17 01:26:17;;;;;;;;;0.33;0.33;;;;;21.10;42.41;102348.72;5035560;28;46110;-75
2023/02/17 01:28:42;;;;;;;;;0.00;0.00;;;;;21.10;41.98;102348.72;5035293;28;45394;-75
2023/02/17 01:31:09;;;;;;;;;4.00;1.00;;;;;21.11;42.34;102337.16;5035484;28;45743;-75
2023/02/17 01:33:35;;;;;;;;;0.33;0.33;;;;;21.04;42.31;102339.53;5035554;28;45459;-75
2023/02/17 01:36:02;;;;;;;;;1.00;1.00;;;;;21.04;41.85;102334.22;5035201;28;46980;-75
2023/02/17 01:38:28;;;;;;;;;1.00;1.00;;;;;21.02;41.94;102326.44;5035470;28;45395;-75
2023/02/17 01:40:53;;;;;;;;;0.00;0.00;;;;;21.09;41.80;102339.94;5035136;28;45324;-75
2023/02/17 01:43:19;;;;;;;;;0.00;0.00;;;;;21.10;41.96;102344.28;5035655;28;45363;-75
2023/02/17 01:45:52;;;;;;;;;0.00;0.00;;;;;21.10;41.89;102351.38;5034826;28;45394;-75
2023/02/17 01:48:24;;;;;;;;;1.00;1.00;;;;;21.11;41.90;102353.88;5035456;28;45300;-74
2023/02/17 01:50:54;;;;;;;;;2.00;1.00;;;;;21.12;41.53;102349.41;5035391;28;45407;-75
2023/02/17 01:53:26;;;;;;;;;0.00;0.00;;;;;21.11;41.94;102353.88;5035349;28;45406;-75
2023/02/17 01:55:54;;;;;;;;;0.00;0.00;;;;;21.12;41.85;102354.72;5034759;28;45327;-76
2023/02/17 01:58:23;;;;;;;;;1.00;1.00;;;;;21.13;42.07;102359.84;5035183;28;45288;-75
2023/02/17 02:00:51;;;;;;;;;0.00;0.00;;;;;21.09;41.89;102353.19;5035339;28;45425;-76
2023/02/17 02:03:17;;;;;;;;;1.00;1.00;;;;;21.14;41.78;102350.13;5035101;28;45389;-73
2023/02/17 02:05:43;;;;;;;;;1.67;1.00;;;;;21.13;41.70;102345.81;5035010;28;46184;-76
2023/02/17 02:08:11;;;;;;;;;0.33;0.33;;;;;21.13;41.61;102343.16;5034980;28;45373;-75
2023/02/17 02:10:36;;;;;;;;;0.00;0.00;;;;;21.12;41.67;102344.97;5034832;28;45268;-75
2023/02/17 02:13:02;;;;;;;;;1.00;1.00;;;;;21.13;41.61;102348.47;5035010;28;45331;-75
2023/02/17 02:15:37;;;;;;;;;0.00;0.00;;;;;21.13;41.76;102348.47;5034934;28;47243;-75
2023/02/17 02:18:08;;;;;;;;;1.00;1.00;;;;;21.13;41.96;102348.47;5035415;28;45465;-75
2023/02/17 02:20:39;;;;;;;;;0.33;0.33;;;;;21.12;41.90;102350.25;5038426;28;45402;-75
2023/02/17 02:23:29;;;;;;;;;0.00;0.00;;;;;21.13;41.97;102340.53;5038319;28;45279;-72
2023/02/17 02:26:17;;;;;;;;;0.00;0.00;;;;;21.12;41.55;102344.13;5037955;28;46018;-76
2023/02/17 02:28:54;;;;;;;;;1.00;1.00;;;;;21.11;41.67;102342.44;5020403;28;45466;-76
2023/02/17 02:31:40;;;;;;;;;0.67;0.67;;;;;21.10;41.97;102338.97;5038271;28;45372;-76
2023/02/17 02:34:12;;;;;;;;;0.67;0.67;;;;;21.10;41.69;102327.56;5038089;28;45205;-74
2023/02/17 02:36:45;;;;;;;;;0.00;0.00;;;;;21.09;41.60;102329.34;5038060;28;46116;-75
2023/02/17 02:39:16;;;;;;;;;1.00;1.00;;;;;21.09;41.96;102331.16;5037851;28;45516;-76
2023/02/17 02:41:49;;;;;;;;;1.00;1.00;;;;;21.08;41.69;102332.16;5038117;28;45178;-75
2023/02/17 02:44:18;;;;;;;;;1.67;1.00;;;;;21.07;41.83;102328.66;5037641;28;45366;-75
2023/02/17 02:46:43;;;;;;;;;1.00;1.00;;;;;21.07;41.60;102328.66;5038064;28;46266;-76
2023/02/17 02:49:10;;;;;;;;;0.67;0.67;;;;;20.95;41.98;102299.63;5020131;28;45736;-76
2023/02/17 02:51:58;;;;;;;;;1.00;1.00;;;;;21.09;42.05;102317.94;5037706;28;45367;-74
2023/02/17 02:54:41;;;;;;;;;3.00;1.00;;;;;21.07;41.65;102318.09;5037618;28;45378;-74
2023/02/17 02:57:18;;;;;;;;;0.67;0.67;;;;;21.06;41.94;102313.75;5037210;28;46313;-75
2023/02/17 02:59:58;;;;;;;;;0.33;0.00;;;;;21.05;41.90;102312.91;5037929;28;45442;-75
2023/02/17 03:02:43;;;;;;;;;1.00;1.00;;;;;21.09;41.54;102310.00;5037783;28;45228;-75
2023/02/17 03:05:20;;;;;;;;;0.00;0.00;;;;;21.02;42.11;102296.50;5037891;28;45669;-75
2023/02/17 03:07:55;;;;;;;;;0.00;0.00;;;;;21.05;42.02;102309.44;5037621;28;45972;-75
2023/02/17 03:10:21;;;;;;;;;1.00;1.00;;;;;21.08;41.82;102313.63;5037672;28;45346;-73
2023/02/17 03:12:46;;;;;;;;;0.00;0.00;;;;;21.08;41.60;102313.63;5037289;28;45388;-74
2023/02/17 03:15:23;;;;;;;;;0.00;0.00;;;;;21.08;41.69;102310.97;5037691;28;45370;-74
2023/02/17 03:17:49;;;;;;;;;1.00;1.00;;;;;21.09;42.03;102310.84;5037493;28;46244;-74
2023/02/17 03:20:14;;;;;;;;;0.00;0.00;;;;;21.07;42.09;102304.84;5037359;28;45376;-74
2023/02/17 03:22:46;;;;;;;;;0.33;0.33;;;;;21.10;41.49;102309.03;5036669;28;45351;-74
2023/02/17 03:25:11;;;;;;;;;1.00;1.00;;;;;21.09;41.68;102305.53;5037640;28;45326;-75
2023/02/17 03:27:36;;;;;;;;;0.00;0.00;;;;;21.02;41.87;102284.09;5037247;28;47216;-74
2023/02/17 03:30:03;;;;;;;;;1.33;0.00;;;;;21.10;41.66;102304.59;5037046;28;45358;-73
2023/02/17 03:32:29;;;;;;;;;1.00;1.00;;;;;20.99;41.66;102281.69;5037364;28;45331;-74
2023/02/17 03:34:54;;;;;;;;;2.00;1.00;;;;;21.09;41.61;102300.25;5019152;28;45395;-75
2023/02/17 03:37:19;;;;;;;;;0.00;0.00;;;;;21.08;41.84;102295.91;5036779;28;47151;-74
2023/02/17 03:39:45;;;;;;;;;0.00;0.00;;;;;21.09;41.76;102302.06;5037342;28;45477;-74
2023/02/17 03:42:10;;;;;;;;;0.00;0.00;;;;;21.09;41.73;102299.41;5037246;28;45351;-74
2023/02/17 03:44:35;;;;;;;;;1.00;1.00;;;;;21.06;41.80;102296.06;5036708;28;45330;-74
2023/02/17 03:47:01;;;;;;;;;0.00;0.00;;;;;21.04;42.09;102291.88;5037130;28;45392;-74
2023/02/17 03:49:26;;;;;;;;;1.00;0.33;;;;;21.07;41.67;102296.91;5036201;28;45294;-75
2023/02/17 03:51:51;;;;;;;;;0.00;0.00;;;;;21.03;41.73;102293.69;5036047;28;45338;-73
2023/02/17 03:54:17;;;;;;;;;1.33;0.00;;;;;21.06;42.13;102297.88;5037026;28;45300;-75
2023/02/17 03:56:42;;;;;;;;;1.00;0.00;;;;;21.06;42.28;102300.53;5036869;28;46933;-74
2023/02/17 03:59:07;;;;;;;;;0.00;0.00;;;;;21.05;42.00;102304.16;5036944;28;45399;-75
2023/02/17 04:01:33;;;;;;;;;0.00;0.00;;;;;21.06;41.78;102305.81;5037073;28;45430;-75
2023/02/17 04:03:58;;;;;;;;;0.00;0.00;;;;;21.07;41.76;102307.50;5037103;28;45398;-74
2023/02/17 04:06:23;;;;;;;;;1.00;1.00;;;;;21.05;41.99;102302.31;5035812;28;45298;-75
2023/02/17 04:08:49;;;;;;;;;2.00;0.00;;;;;21.06;42.30;102301.38;5036876;28;45338;-75
2023/02/17 04:11:14;;;;;;;;;0.00;0.00;;;;;21.07;42.08;102302.19;5036834;28;45314;-74
2023/02/17 04:13:39;;;;;;;;;1.00;1.00;;;;;21.06;42.16;102301.38;5036829;28;45300;-74
2023/02/17 04:16:07;;;;;;;;;0.33;0.00;;;;;21.03;42.04;102298.97;5036882;28;46150;-74
2023/02/17 04:18:34;;;;;;;;;1.00;1.00;;;;;21.07;41.64;102307.50;5036676;28;45443;-75
2023/02/17 04:20:59;;;;;;;;;2.33;1.00;;;;;20.99;42.03;102291.44;5036194;28;45511;-75
2023/02/17 04:23:25;;;;;;;;;0.67;0.00;;;;;20.98;41.89;102297.69;5036555;28;45431;-74
2023/02/17 04:25:50;;;;;;;;;0.00;0.00;;;;;21.09;41.79;102320.59;5036546;28;46043;-74
2023/02/17 04:28:16;;;;;;;;;0.50;0.50;;;;;21.09;41.89;102320.59;5036440;28;45348;-73
2023/02/17 04:30:47;;;;;;;;;0.00;0.00;;;;;21.09;41.64;102323.22;5036422;28;45295;-74
2023/02/17 04:33:12;;;;;;;;;0.00;0.00;;;;;21.06;42.30;102319.88;5036052;28;45621;-74
2023/02/17 04:35:38;;;;;;;;;0.00;0.00;;;;;21.10;42.37;102327.56;5035685;28;46149;-75
2023/02/17 04:38:05;;;;;;;;;1.00;1.00;;;;;21.07;41.79;102323.38;5036347;28;45374;-75
2023/02/17 04:40:30;;;;;;;;;0.00;0.00;;;;;21.11;42.21;102331.84;5035353;28;45344;-75
2023/02/17 04:42:55;;;;;;;;;0.00;0.00;;;;;21.08;42.12;102318.94;5036131;28;45368;-74
2023/02/17 04:45:21;;;;;;;;;0.00;0.00;;;;;21.10;41.83;102338.97;5036184;28;45401;-73
2023/02/17 04:47:46;;;;;;;;;0.00;0.00;;;;;21.09;41.86;102337.31;5036290;28;45468;-74
2023/02/17 04:50:12;;;;;;;;;0.00;0.00;;;;;21.01;41.96;102326.53;5035820;28;45422;-74
2023/02/17 04:52:37;;;;;;;;;2.00;1.00;;;;;21.09;42.07;102339.94;5036168;28;45382;-74
2023/02/17 04:55:04;;;;;;;;;0.33;0.33;;;;;21.01;42.24;102337.97;5035982;28;46004;-74
2023/02/17 04:57:29;;;;;;;;;1.00;1.00;;;;;21.08;41.98;102346.19;5036064;28;45348;-74
2023/02/17 04:59:55;;;;;;;;;0.00;0.00;;;;;21.04;41.87;102336.88;5036180;28;45292;-74
2023/02/17 05:02:20;;;;;;;;;0.00;0.00;;;;;21.05;42.21;102344.66;5036216;28;45641;-74
2023/02/17 05:04:45;;;;;;;;;1.00;0.00;;;;;21.06;41.92;102343.69;5017745;28;47224;-74
2023/02/17 05:07:11;;;;;;;;;0.00;0.00;;;;;21.07;42.14;102344.53;5035820;28;45419;-74
2023/02/17 05:09:36;;;;;;;;;0.33;0.00;;;;;21.06;42.13;102349.00;5035978;28;45416;-74
2023/02/17 05:12:01;;;;;;;;;0.00;0.00;;;;;21.06;42.14;102356.94;5035782;28;45351;-74
2023/02/17 05:14:28;;;;;;;;;0.00;0.00;;;;;21.08;41.97;102350.69;5035249;28;45381;-74
2023/02/17 05:16:53;;;;;;;;;0.00;0.00;;;;;21.06;42.16;102350.81;5035777;28;45417;-74
2023/02/17 05:19:19;;;;;;;;;0.33;0.00;;;;;21.07;41.97;102357.78;5035464;28;45470;-74
2023/02/17 05:21:44;;;;;;;;;0.00;0.00;;;;;21.06;41.89;102370.16;5035715;28;45368;-74
2023/02/17 05:24:09;;;;;;;;;0.00;0.00;;;;;21.06;42.09;102364.88;5035803;28;46665;-74
2023/02/17 05:26:35;;;;;;;;;0.00;0.00;;;;;21.08;41.75;102361.25;5017866;28;45364;-74
2023/02/17 05:29:00;;;;;;;;;0.00;0.00;;;;;21.08;41.91;102362.09;5035789;28;45255;-73
2023/02/17 05:31:25;;;;;;;;;0.00;0.00;;;;;21.08;42.15;102354.13;5035571;28;45248;-73
2023/02/17 05:33:53;;;;;;;;;1.00;0.00;;;;;21.08;41.98;102358.63;5034792;28;46208;-73
2023/02/17 05:36:18;;;;;;;;;0.33;0.33;;;;;21.08;42.29;102358.63;5034703;28;45275;-74
2023/02/17 05:38:47;;;;;;;;;0.00;0.00;;;;;21.08;42.00;102359.44;5035668;28;45247;-74
2023/02/17 05:41:13;;;;;;;;;0.33;0.33;;;;;21.09;42.01;102352.34;5035524;28;45485;-74
2023/02/17 05:43:39;;;;;;;;;1.00;0.00;;;;;21.10;42.50;102361.97;5034681;28;45410;-74
2023/02/17 05:46:04;;;;;;;;;0.00;0.00;;;;;21.09;41.92;102358.47;5035356;28;45376;-74
2023/02/17 05:48:30;;;;;;;;;1.00;0.00;;;;;21.03;42.40;102354.56;5035195;28;45497;-75
2023/02/17 05:50:55;;;;;;;;;2.00;0.00;;;;;21.09;42.18;102362.91;5035285;28;45434;-74
2023/02/17 05:53:20;;;;;;;;;0.00;0.00;;;;;21.09;42.37;102378.81;5037681;28;46116;-74
2023/02/17 05:55:46;;;;;;;;;0.00;0.00;;;;;21.09;42.28;102368.22;5038894;28;45402;-74
2023/02/17 05:58:11;;;;;;;;;0.00;0.00;;;;;21.05;42.09;102371.13;5038819;28;45289;-74
2023/02/17 06:00:36;;;;;;;;;0.00;0.00;;;;;21.09;41.82;102368.22;5038934;28;45486;-74
2023/02/17 06:03:02;;;;;;;;;0.00;0.00;;;;;21.10;41.92;102369.91;5037736;28;46237;-74
2023/02/17 06:05:27;;;;;;;;;0.00;0.00;;;;;21.04;42.09;102368.63;5038906;28;45406;-74
2023/02/17 06:07:52;;;;;;;;;0.00;0.00;;;;;21.07;42.22;102381.59;5038869;28;45382;-74
2023/02/17 06:10:18;;;;;;;;;0.00;0.00;;;;;21.04;42.14;102372.13;5038529;28;45416;-73
2023/02/17 06:12:43;;;;;;;;;2.00;0.00;;;;;21.06;41.98;102377.25;5038624;28;45507;-75
2023/02/17 06:15:09;;;;;;;;;0.00;0.00;;;;;21.03;42.00;102383.66;5038607;28;45394;-74
2023/02/17 06:17:34;;;;;;;;;0.00;0.00;;;;;21.04;42.45;102388.00;5038277;28;45220;-75
2023/02/17 06:19:59;;;;;;;;;0.00;0.00;;;;;21.05;42.13;102394.13;5038694;28;45295;-74
2023/02/17 06:22:25;;;;;;;;;0.33;0.33;;;;;21.06;42.28;102390.50;5038020;28;50436;-77
2023/02/17 06:24:50;;;;;;;;;0.00;0.00;;;;;21.05;42.23;102387.00;5038482;28;45360;-78
2023/02/17 06:27:15;;;;;;;;;1.00;0.00;;;;;21.07;42.11;102400.13;5038595;28;45379;-73
2023/02/17 06:29:41;;;;;;;;;0.00;0.00;;;;;21.09;42.51;102408.75;5029711;28;45311;-73
2023/02/17 06:32:06;;;;;;;;;0.00;0.00;;;;;21.09;42.09;102399.97;5036007;28;46222;-73
2023/02/17 06:34:31;;;;;;;;;0.00;0.00;;;;;21.10;42.58;102405.16;5036711;28;45357;-73
2023/02/17 06:36:56;;;;;;;;;0.00;0.00;;;;;21.10;42.22;102413.09;5038114;28;45382;-72
2023/02/17 06:39:22;;;;;;;;;0.00;0.00;;;;;21.04;42.18;102393.28;5037071;28;45454;-72
2023/02/17 06:41:47;;;;;;;;;0.00;0.00;;;;;21.14;42.52;102413.63;5036540;28;46295;-72
2023/02/17 06:44:12;;;;;;;;;0.00;0.00;;;;;21.14;42.61;102417.13;5037890;28;45373;-73
2023/02/17 06:46:38;;;;;;;;;0.00;0.00;;;;;21.04;42.50;102393.28;5019750;28;45459;-73
2023/02/17 06:49:04;;;;;;;;;0.00;0.00;;;;;21.17;42.65;102416.03;5037975;28;45438;-74
2023/02/17 06:51:29;;;;;;;;;0.00;0.00;;;;;21.13;43.19;102414.63;5027533;28;46109;-72
2023/02/17 06:53:55;;;;;;;;;0.00;0.00;;;;;21.18;43.02;102430.94;5037027;28;45367;-72
2023/02/17 06:56:21;;;;;;;;;1.00;0.00;;;;;21.17;42.94;102424.81;5037369;28;45276;-73
2023/02/17 06:58:46;;;;;;;;;0.33;0.33;;;;;21.13;43.30;102414.63;5037246;28;45350;-73
2023/02/17 07:01:17;;;;;;;;;0.00;0.00;;;;;21.16;43.35;102423.13;5036620;28;46154;-73
2023/02/17 07:03:43;;;;;;;;;1.00;0.00;;;;;21.14;43.20;102416.28;5034397;28;45562;-72
2023/02/17 07:06:08;;;;;;;;;0.00;0.00;;;;;21.16;43.07;102423.13;5037135;28;45482;-73
2023/02/17 07:08:34;;;;;;;;;1.00;1.00;;;;;21.17;43.51;102419.50;5036887;28;45529;-73
2023/02/17 07:11:04;;;;;;;;;0.00;0.00;;;;;21.16;43.42;102428.41;5037351;28;46230;-72
2023/02/17 07:13:29;;;;;;;;;0.00;0.00;;;;;21.17;42.95;102431.91;5037268;28;45329;-73
2023/02/17 07:15:55;;;;;;;;;0.00;0.00;;;;;21.17;43.08;102442.47;5037446;28;45327;-73
2023/02/17 07:18:20;;;;;;;;;0.00;0.00;;;;;21.16;42.99;102444.28;5037613;28;45429;-73
2023/02/17 07:20:47;;;;;;;;;0.00;0.00;;;;;21.16;43.39;102444.28;5037482;28;46705;-72
2023/02/17 07:23:12;;;;;;;;;0.00;0.00;;;;;21.15;43.17;102445.28;5037334;28;45335;-73
2023/02/17 07:25:37;;;;;;;;;0.00;0.00;;;;;21.15;43.19;102447.94;5037640;28;45279;-72
2023/02/17 07:28:03;;;;;;;;;0.00;0.00;;;;;21.15;43.35;102455.88;5037598;28;45395;-73
2023/02/17 07:30:28;;;;;;;;;0.00;0.00;;;;;21.14;43.34;102454.19;5037028;28;47191;-72
2023/02/17 07:32:54;;;;;;;;;0.00;0.00;;;;;21.14;43.25;102458.63;5037315;28;45299;-73
2023/02/17 07:35:19;;;;;;;;;2.00;0.00;;;;;21.13;43.13;102462.25;5037207;28;45310;-73
2023/02/17 07:37:44;;;;;;;;;0.00;0.00;;;;;21.12;43.89;102456.13;5037341;28;45427;-72
2023/02/17 07:40:10;;;;;;;;;0.00;0.00;;;;;21.12;43.53;102456.13;5037251;28;46152;-73
2023/02/17 07:42:35;;;;;;;;;0.00;0.00;;;;;21.12;43.70;102461.44;5037445;28;45305;-73
2023/02/17 07:45:01;;;;;;;;;1.00;0.00;;;;;21.12;43.62;102464.06;5036897;28;45390;-72
2023/02/17 07:47:26;;;;;;;;;0.00;0.00;;;;;21.13;43.51;102456.97;5037426;28;45399;-72
2023/02/17 07:49:51;;;;;;;;;0.33;0.00;;;;;21.11;43.70;102458.88;5037113;28;46133;-72
2023/02/17 07:52:17;;;;;;;;;0.00;0.00;;;;;21.11;43.63;102450.94;5019085;28;45301;-72
2023/02/17 07:54:42;;;;;;;;;0.00;0.00;;;;;21.12;43.98;102455.28;5037043;28;45407;-72
2023/02/17 07:57:08;;;;;;;;;0.00;0.00;;;;;21.11;43.69;102457.09;5036975;28;45327;-73
2023/02/17 07:59:33;;;;;;;;;0.00;0.00;;;;;21.12;43.65;102461.44;5036549;28;45921;-73
2023/02/17 08:01:58;;;;;;;;;0.00;0.00;;;;;21.10;43.63;102455.44;5033792;28;45439;-73
2023/02/17 08:04:24;;;;;;;;;0.33;0.00;;;;;21.15;43.52;102465.59;5036071;28;45346;-73
2023/02/17 08:06:49;;;;;;;;;0.00;0.00;;;;;21.15;43.58;102465.59;5036581;28;45249;-73
2023/02/17 08:14:42;;;;;;;;;0.00;0.00;;;;;21.17;43.64;102468.94;5035912;28;45381;-73
2023/02/17 08:17:08;;;;;;;;;0.00;0.00;;;;;21.17;43.51;102467.16;5035147;28;45525;-73
2023/02/17 08:19:33;;;;;;;;;0.00;0.00;;;;;21.17;43.23;102464.50;5036258;28;46027;-73
2023/02/17 08:21:58;;;;;;;;;0.00;0.00;;;;;21.18;43.24;102462.69;5036287;28;45343;-73
2023/02/17 08:24:25;;;;;;;;;0.67;0.00;;;;;21.15;43.19;102460.31;5036082;28;45458;-73
2023/02/17 08:26:51;;;;;;;;;0.00;0.00;;;;;21.10;43.56;102454.59;5036442;28;45398;-73
2023/02/17 08:29:19;;;;;;;;;0.00;0.00;;;;;21.17;43.37;102467.16;5035579;28;47151;-73
2023/02/17 08:31:45;;;;;;;;;0.00;0.00;;;;;21.16;43.23;102461.97;5036184;28;45731;-73
2023/02/17 08:34:11;;;;;;;;;0.00;0.00;;;;;21.17;43.50;102466.31;5036014;28;45394;-73
2023/02/17 08:36:38;;;;;;;;;0.00;0.00;;;;;21.16;43.35;102462.81;5036091;28;45447;-73
2023/02/17 08:39:11;;;;;;;;;1.00;0.00;;;;;21.17;43.65;102461.84;5035816;28;47062;-73
2023/02/17 08:41:38;;;;;;;;;0.00;0.00;;;;;21.17;43.66;102459.22;5035674;28;45311;-73
2023/02/17 08:44:08;;;;;;;;;0.00;0.00;;;;;21.16;43.46;102460.16;5036218;28;45274;-73
2023/02/17 08:46:35;;;;;;;;;0.00;0.00;;;;;21.15;43.18;102450.56;5035724;28;45514;-73
2023/02/17 08:49:00;;;;;;;;;0.00;0.00;;;;;21.17;43.38;102453.06;5035689;28;46199;-73
2023/02/17 08:51:25;;;;;;;;;0.00;0.00;;;;;21.17;43.27;102455.72;5035867;28;45371;-73
2023/02/17 08:53:53;;;;;;;;;0.00;0.00;;;;;21.16;43.39;102459.31;5036180;28;45911;-73
2023/02/17 08:56:19;;;;;;;;;0.00;0.00;;;;;21.16;43.54;102464.63;5035422;28;45558;-73
2023/02/17 08:58:44;;;;;;;;;0.00;0.00;;;;;21.15;43.33;102461.16;5035695;28;47427;-73
2023/02/17 09:01:11;;;;;;;;;1.00;0.00;;;;;21.16;43.63;102476.06;5035470;28;45417;-73
2023/02/17 09:03:37;;;;;;;;;0.00;0.00;;;;;21.16;43.70;102473.41;5036018;28;45387;-73
2023/02/17 09:06:04;;;;;;;;;0.00;0.00;;;;;21.17;43.20;102474.25;5035894;28;45427;-73
2023/02/17 09:08:29;;;;;;;;;0.00;0.00;;;;;21.12;43.35;102463.22;5035716;28;45363;-73
2023/02/17 09:10:55;;;;;;;;;0.00;0.00;;;;;21.16;43.57;102469.91;5034945;28;45301;-73
2023/02/17 09:13:20;;;;;;;;;0.00;0.00;;;;;21.15;43.27;102473.56;5035721;28;45403;-73
2023/02/17 09:15:46;;;;;;;;;0.00;0.00;;;;;21.15;43.43;102481.50;5035717;28;45314;-73
2023/02/17 09:18:11;;;;;;;;;0.00;0.00;;;;;21.16;43.34;102483.16;5035492;28;46314;-73
2023/02/17 09:20:38;;;;;;;;;0.00;0.00;;;;;21.11;43.47;102475.63;5035482;28;45265;-73
2023/02/17 09:23:04;;;;;;;;;0.00;0.00;;;;;21.16;43.54;102483.16;5035336;28;45323;-73
2023/02/17 09:25:29;;;;;;;;;0.00;0.00;;;;;21.13;43.66;102475.50;5034316;28;45454;-73
2023/02/17 09:27:54;;;;;;;;;0.00;0.00;;;;;21.15;43.41;102487.63;5035074;28;47305;-72
2023/02/17 09:30:20;;;;;;;;;0.00;0.00;;;;;21.10;43.40;102481.91;5035358;28;45273;-73
2023/02/17 09:32:45;;;;;;;;;0.00;0.00;;;;;21.17;43.10;102495.41;5017421;28;45363;-72
2023/02/17 09:35:15;;;;;;;;;0.00;0.00;;;;;21.18;43.49;102511.16;5034788;28;45540;-73
2023/02/17 09:37:40;;;;;;;;;1.00;0.00;;;;;21.16;43.12;102506.97;5035195;28;45402;-73
2023/02/17 09:40:07;;;;;;;;;0.67;0.00;;;;;21.13;43.46;102507.25;5035038;28;45599;-73
2023/02/17 09:42:38;;;;;;;;;1.00;1.00;;;;;21.17;43.47;102520.09;5035184;28;45248;-73
2023/02/17 09:45:08;;;;;;;;;0.00;0.00;;;;;21.17;43.53;102520.09;5035137;28;45382;-73
2023/02/17 09:47:41;;;;;;;;;0.00;0.00;;;;;21.17;43.48;102529.84;5034930;28;46326;-73
2023/02/17 09:50:17;;;;;;;;;0.00;0.00;;;;;21.17;43.45;102533.31;5035213;28;45431;-73
2023/02/17 09:53:15;;;;;;;;;0.00;0.00;;;;;21.15;43.54;102527.34;5035028;28;45254;-73
2023/02/17 09:55:45;;;;;;;;;0.67;0.00;;;;;21.16;43.73;102528.16;5034587;28;45457;-73
2023/02/17 09:58:22;;;;;;;;;0.00;0.00;;;;;21.16;43.11;102531.63;5034874;28;47220;-73
2023/02/17 10:00:53;;;;;;;;;0.00;0.00;;;;;21.11;43.21;102531.19;5034699;28;45254;-73
2023/02/17 10:03:31;;;;;;;;;0.00;0.00;;;;;21.16;43.72;102530.78;5032161;28;45376;-73
2023/02/17 10:06:26;;;;;;;;;0.00;0.00;;;;;21.17;43.54;102537.78;5034586;28;45287;-73
2023/02/17 10:08:59;;;;;;;;;0.00;0.00;;;;;21.13;43.21;102531.91;5033018;28;46346;-73
2023/02/17 10:11:37;;;;;;;;;0.67;0.00;;;;;21.14;43.14;102541.53;5029098;28;45790;-73
2023/02/17 10:14:13;;;;;;;;;0.00;0.00;;;;;21.17;43.20;102545.72;5026586;28;45383;-73
2023/02/17 10:16:48;;;;;;;;;0.00;0.00;;;;;21.16;43.50;102547.50;5027059;28;45401;-73
2023/02/17 10:19:31;;;;;;;;;0.00;0.00;;;;;21.16;43.56;102539.56;5024960;28;45376;-73
2023/02/17 10:22:12;;;;;;;;;0.67;0.00;;;;;21.15;43.18;102551.16;5026782;28;45388;-73
2023/02/17 10:24:38;;;;;;;;;0.00;0.00;;;;;21.15;43.51;102548.50;5024361;28;45371;-73
2023/02/17 10:27:15;;;;;;;;;0.33;0.00;;;;;21.16;43.36;102549.31;5024171;28;45608;-73
2023/02/17 10:30:08;;;;;;;;;0.00;0.00;;;;;21.16;43.60;102552.81;5023889;28;46066;-73
2023/02/17 10:32:53;;;;;;;;;1.33;0.00;;;;;21.14;43.18;102548.63;5024023;28;45385;-73
2023/02/17 10:35:52;;;;;;;;;0.00;0.00;;;;;21.17;43.39;102548.38;5026953;28;45373;-73
2023/02/17 10:38:37;;;;;;;;;0.00;0.00;;;;;21.18;43.85;102534.16;5020387;28;45532;-73
2023/02/17 10:41:04;;;;;;;;;0.00;0.00;;;;;21.18;43.64;102534.97;5026671;28;47032;-73
2023/02/17 10:43:32;;;;;;;;;0.00;0.00;;;;;21.18;43.48;102532.34;5026640;28;45420;-74
2023/02/17 10:46:01;;;;;;;;;0.67;0.33;;;;;21.20;43.49;102532.22;5008983;28;45731;-73
2023/02/17 10:48:38;;;;;;;;;0.00;0.00;;;;;21.20;43.49;102526.09;5025559;28;45671;-73
2023/02/17 10:51:04;;;;;;;;;1.00;1.00;;;;;21.16;43.24;102518.41;5033511;28;46395;-73
2023/02/17 10:53:39;;;;;;;;;0.67;0.67;;;;;21.21;43.16;102531.22;5037510;28;45249;-72
2023/02/17 10:56:13;;;;;;;;;0.00;0.00;;;;;21.21;43.36;102530.41;5037918;28;45241;-73
2023/02/17 10:58:56;;;;;;;;;0.00;0.00;;;;;21.21;43.22;102531.22;5037860;28;45442;-73
2023/02/17 11:01:25;;;;;;;;;0.00;0.00;;;;;21.21;43.55;102528.59;5037445;28;45403;-73
2023/02/17 11:04:08;;;;;;;;;0.00;0.00;;;;;21.22;43.37;102522.34;5037611;28;45228;-73
2023/02/17 11:06:43;;;;;;;;;1.00;0.00;;;;;21.23;43.50;102531.13;5037376;28;45441;-73
2023/02/17 11:09:31;;;;;;;;;0.00;0.00;;;;;21.23;43.30;102531.97;5037510;28;45426;-73
2023/02/17 11:12:04;;;;;;;;;0.00;0.00;;;;;21.22;43.45;102534.72;5037102;28;46162;-73
2023/02/17 11:14:32;;;;;;;;;0.00;0.00;;;;;21.22;43.36;102532.91;5037059;28;45330;-73
2023/02/17 11:17:12;;;;;;;;;0.00;0.00;;;;;21.21;43.36;102530.41;5037359;28;45322;-72
2023/02/17 11:19:37;;;;;;;;;0.00;0.00;;;;;21.21;43.48;102531.22;5037238;28;45347;-73
2023/02/17 11:22:24;;;;;;;;;0.00;0.00;;;;;21.21;43.62;102528.59;5036896;28;46322;-73
2023/02/17 11:25:00;;;;;;;;;0.00;0.00;;;;;21.21;43.13;102520.63;5037328;28;45378;-72
2023/02/17 11:27:26;;;;;;;;;0.00;0.00;;;;;21.22;43.51;102526.78;5037362;28;45603;-73
2023/02/17 11:29:51;;;;;;;;;0.00;0.00;;;;;21.20;43.61;102515.50;5037015;28;45545;-74
2023/02/17 11:32:18;;;;;;;;;0.00;0.00;;;;;21.13;43.69;102505.44;5036894;28;45430;-74
2023/02/17 11:34:56;;;;;;;;;0.00;0.00;;;;;21.21;43.37;102512.69;5025510;28;45462;-72